createdAt,value
2018-06-23T00:00:53.005Z,0.00
2018-06-23T00:01:52.998Z,0.00
2018-06-23T00:02:52.993Z,0.00
2018-06-23T00:03:52.985Z,0.00
2018-06-23T00:04:52.982Z,0.00
2018-06-23T00:05:52.979Z,0.00
2018-06-23T00:06:52.979Z,0.00
2018-06-23T00:07:52.975Z,0.00
2018-06-23T00:08:52.969Z,0.00
2018-06-23T00:09:52.966Z,0.00
2018-06-23T00:10:52.958Z,0.00
2018-06-23T00:11:52.952Z,0.00
2018-06-23T00:12:52.955Z,0.00
2018-06-23T00:13:52.950Z,0.00
2018-06-23T00:14:52.945Z,0.00
2018-06-23T00:15:52.937Z,0.00
2018-06-23T00:16:52.933Z,0.00
2018-06-23T00:17:52.929Z,0.00
2018-06-23T00:18:52.931Z,0.00
2018-06-23T00:19:52.926Z,0.00
2018-06-23T00:20:52.969Z,0.00
2018-06-23T00:21:52.917Z,0.00
2018-06-23T00:22:52.914Z,0.00
2018-06-23T00:23:52.903Z,0.00
2018-06-23T00:24:52.900Z,0.00
2018-06-23T00:25:52.895Z,0.00
2018-06-23T00:26:52.896Z,0.00
2018-06-23T00:27:52.891Z,0.00
2018-06-23T00:28:52.882Z,0.00
2018-06-23T00:29:52.877Z,0.00
2018-06-23T00:30:52.878Z,0.00
2018-06-23T00:31:52.872Z,0.00
2018-06-23T00:32:52.870Z,0.00
2018-06-23T00:33:52.865Z,0.00
2018-06-23T00:34:52.856Z,0.00
2018-06-23T00:35:52.851Z,0.00
2018-06-23T00:36:52.849Z,0.00
2018-06-23T00:37:52.843Z,0.00
2018-06-23T00:38:52.843Z,0.00
2018-06-23T00:39:52.838Z,0.00
2018-06-23T00:40:52.837Z,0.00
2018-06-23T00:41:52.830Z,0.00
2018-06-23T00:42:52.821Z,0.00
2018-06-23T00:43:52.814Z,0.00
2018-06-23T00:44:52.816Z,0.00
2018-06-23T00:45:52.816Z,0.00
2018-06-23T00:46:52.801Z,0.00
2018-06-23T00:47:52.797Z,0.00
2018-06-23T00:48:52.791Z,0.00
2018-06-23T00:49:52.787Z,0.00
2018-06-23T00:50:52.788Z,0.00
2018-06-23T00:51:52.781Z,0.00
2018-06-23T00:52:52.777Z,0.00
2018-06-23T00:53:52.772Z,0.00
2018-06-23T00:54:52.763Z,0.00
2018-06-23T00:55:52.758Z,0.00
2018-06-23T00:56:52.753Z,0.00
2018-06-23T00:57:52.749Z,0.00
2018-06-23T00:58:52.750Z,0.00
2018-06-23T00:59:52.744Z,0.00
2018-06-23T01:00:52.735Z,0.00
2018-06-23T01:01:52.729Z,0.00
2018-06-23T01:02:52.729Z,0.00
2018-06-23T01:03:52.724Z,0.00
2018-06-23T01:04:52.719Z,0.00
2018-06-23T01:05:52.713Z,0.00
2018-06-23T01:06:52.705Z,0.00
2018-06-23T01:07:52.699Z,0.00
2018-06-23T01:08:52.695Z,0.00
2018-06-23T01:09:52.692Z,0.00
2018-06-23T01:10:52.689Z,0.00
2018-06-23T01:11:52.683Z,0.00
2018-06-23T01:12:52.680Z,0.00
2018-06-23T01:13:52.675Z,0.00
2018-06-23T01:14:52.666Z,0.00
2018-06-23T01:15:52.659Z,0.00
2018-06-23T01:16:52.662Z,0.00
2018-06-23T01:17:52.654Z,0.00
2018-06-23T01:18:52.644Z,0.00
2018-06-23T01:19:52.639Z,0.00
2018-06-23T01:20:52.635Z,0.00
2018-06-23T01:21:52.629Z,0.00
2018-06-23T01:22:52.629Z,0.00
2018-06-23T01:23:52.622Z,0.00
2018-06-23T01:24:52.618Z,0.00
2018-06-23T01:25:52.613Z,0.00
2018-06-23T01:26:52.603Z,0.00
2018-06-23T01:27:52.598Z,0.00
2018-06-23T01:28:52.594Z,0.00
2018-06-23T01:29:52.588Z,0.00
2018-06-23T01:30:52.589Z,0.00
2018-06-23T01:31:52.582Z,0.00
2018-06-23T01:32:52.573Z,0.00
2018-06-23T01:33:52.569Z,0.00
2018-06-23T01:34:52.568Z,0.00
2018-06-23T01:35:52.561Z,0.00
2018-06-23T01:36:52.556Z,0.00
2018-06-23T01:37:52.550Z,0.00
2018-06-23T01:38:52.541Z,0.00
2018-06-23T01:39:52.536Z,0.00
2018-06-23T01:40:52.531Z,0.00
2018-06-23T01:41:52.527Z,0.00
2018-06-23T01:42:52.528Z,0.00
2018-06-23T01:43:52.522Z,0.00
2018-06-23T01:44:52.515Z,0.00
2018-06-23T01:45:52.509Z,0.00
2018-06-23T01:46:52.499Z,0.00
2018-06-23T01:47:52.494Z,0.00
2018-06-23T01:48:52.494Z,0.00
2018-06-23T01:49:52.489Z,0.00
2018-06-23T01:50:52.485Z,0.00
2018-06-23T01:51:52.473Z,0.00
2018-06-23T01:52:52.468Z,0.00
2018-06-23T01:53:52.462Z,0.00
2018-06-23T01:54:52.505Z,0.00
2018-06-23T01:55:52.457Z,0.00
2018-06-23T01:56:52.452Z,0.00
2018-06-23T01:57:52.446Z,0.00
2018-06-23T01:58:52.436Z,0.00
2018-06-23T01:59:52.430Z,0.00
2018-06-23T02:00:52.424Z,0.00
2018-06-23T02:01:52.419Z,0.00
2018-06-23T02:02:52.419Z,0.00
2018-06-23T02:03:52.413Z,0.00
2018-06-23T02:04:52.403Z,0.00
2018-06-23T02:05:52.398Z,0.00
2018-06-23T02:06:52.398Z,0.00
2018-06-23T02:07:52.390Z,0.00
2018-06-23T02:08:52.388Z,0.00
2018-06-23T02:09:52.381Z,0.00
2018-06-23T02:10:52.371Z,0.00
2018-06-23T02:11:52.364Z,0.00
2018-06-23T02:12:52.365Z,0.00
2018-06-23T02:13:52.357Z,0.00
2018-06-23T02:14:52.354Z,0.00
2018-06-23T02:15:52.347Z,0.00
2018-06-23T02:16:52.341Z,0.00
2018-06-23T02:17:52.338Z,0.00
2018-06-23T02:18:52.327Z,0.00
2018-06-23T02:19:52.320Z,0.00
2018-06-23T02:20:52.319Z,0.00
2018-06-23T02:21:52.314Z,0.00
2018-06-23T02:22:52.304Z,0.00
2018-06-23T02:23:52.298Z,0.00
2018-06-23T02:24:52.296Z,0.00
2018-06-23T02:25:52.289Z,0.00
2018-06-23T02:26:52.288Z,0.00
2018-06-23T02:27:52.282Z,0.00
2018-06-23T02:28:52.277Z,0.00
2018-06-23T02:29:52.271Z,0.00
2018-06-23T02:30:52.260Z,0.00
2018-06-23T02:31:52.254Z,0.00
2018-06-23T02:32:52.251Z,0.00
2018-06-23T02:33:52.243Z,0.00
2018-06-23T02:34:52.242Z,0.00
2018-06-23T02:35:52.237Z,0.00
2018-06-23T02:36:52.226Z,0.00
2018-06-23T02:37:52.224Z,0.00
2018-06-23T02:38:52.220Z,0.00
2018-06-23T02:39:52.215Z,0.00
2018-06-23T02:40:52.209Z,0.00
2018-06-23T02:41:52.204Z,0.00
2018-06-23T02:42:52.193Z,0.00
2018-06-23T02:43:52.188Z,0.00
2018-06-23T02:44:52.187Z,0.00
2018-06-23T02:45:52.181Z,0.00
2018-06-23T02:46:52.174Z,0.00
2018-06-23T02:47:52.165Z,0.00
2018-06-23T02:48:52.159Z,0.00
2018-06-23T02:49:52.154Z,0.00
2018-06-23T02:50:52.154Z,0.00
2018-06-23T02:51:52.152Z,0.00
2018-06-23T02:52:52.137Z,0.00
2018-06-23T02:53:52.132Z,0.00
2018-06-23T02:54:52.132Z,0.00
2018-06-23T02:55:52.127Z,0.00
2018-06-23T02:56:52.119Z,0.00
2018-06-23T02:57:52.115Z,0.00
2018-06-23T02:58:52.105Z,0.00
2018-06-23T02:59:52.099Z,0.00
2018-06-23T03:00:52.093Z,0.00
2018-06-23T03:01:52.088Z,0.00
2018-06-23T03:02:52.087Z,0.00
2018-06-23T03:03:52.080Z,0.00
2018-06-23T03:04:52.076Z,0.00
2018-06-23T03:05:52.070Z,0.00
2018-06-23T03:06:52.065Z,0.00
2018-06-23T03:07:52.055Z,0.00
2018-06-23T03:08:52.054Z,5.63
2018-06-23T03:09:52.048Z,5.63
2018-06-23T03:10:52.040Z,5.63
2018-06-23T03:11:52.032Z,5.63
2018-06-23T03:12:52.027Z,5.63
2018-06-23T03:13:52.020Z,5.63
2018-06-23T03:14:52.020Z,5.63
2018-06-23T03:15:52.016Z,5.63
2018-06-23T03:16:52.008Z,5.63
2018-06-23T03:17:52.002Z,5.63
2018-06-23T03:18:51.993Z,11.25
2018-06-23T03:19:51.986Z,11.25
2018-06-23T03:20:51.981Z,11.25
2018-06-23T03:21:51.975Z,11.25
2018-06-23T03:22:51.974Z,11.25
2018-06-23T03:23:51.968Z,11.25
2018-06-23T03:24:51.957Z,16.88
2018-06-23T03:25:51.952Z,16.88
2018-06-23T03:26:51.952Z,16.88
2018-06-23T03:27:51.947Z,22.50
2018-06-23T03:28:51.939Z,22.50
2018-06-23T03:29:51.933Z,22.50
2018-06-23T03:30:51.924Z,22.50
2018-06-23T03:31:51.917Z,28.13
2018-06-23T03:32:51.912Z,28.13
2018-06-23T03:33:51.907Z,28.13
2018-06-23T03:34:51.905Z,28.13
2018-06-23T03:35:51.903Z,28.13
2018-06-23T03:36:51.895Z,28.13
2018-06-23T03:37:51.889Z,33.75
2018-06-23T03:38:51.879Z,33.75
2018-06-23T03:39:51.873Z,33.75
2018-06-23T03:40:51.872Z,33.75
2018-06-23T03:41:51.866Z,33.75
2018-06-23T03:42:51.855Z,39.38
2018-06-23T03:43:51.941Z,39.38
2018-06-23T03:44:51.843Z,39.38
2018-06-23T03:45:51.837Z,45.00
2018-06-23T03:46:51.836Z,45.00
2018-06-23T03:47:51.830Z,45.00
2018-06-23T03:48:51.829Z,50.63
2018-06-23T03:49:51.821Z,50.63
2018-06-23T03:50:51.810Z,50.63
2018-06-23T03:51:51.804Z,56.25
2018-06-23T03:52:51.798Z,56.25
2018-06-23T03:53:51.792Z,56.25
2018-06-23T03:54:51.792Z,56.25
2018-06-23T03:55:51.785Z,56.25
2018-06-23T03:56:51.777Z,56.25
2018-06-23T03:57:51.770Z,56.25
2018-06-23T03:58:51.768Z,61.88
2018-06-23T03:59:51.763Z,61.88
2018-06-23T04:00:51.757Z,67.50
2018-06-23T04:01:51.751Z,67.50
2018-06-23T04:02:51.742Z,67.50
2018-06-23T04:03:51.735Z,73.13
2018-06-23T04:04:51.730Z,73.13
2018-06-23T04:05:51.724Z,73.13
2018-06-23T04:06:51.724Z,78.75
2018-06-23T04:07:51.717Z,78.75
2018-06-23T04:08:51.711Z,78.75
2018-06-23T04:09:51.706Z,84.38
2018-06-23T04:10:51.696Z,90.00
2018-06-23T04:11:51.693Z,95.63
2018-06-23T04:12:51.689Z,95.63
2018-06-23T04:13:51.683Z,90.00
2018-06-23T04:14:51.673Z,90.00
2018-06-23T04:15:51.669Z,95.63
2018-06-23T04:16:51.720Z,101.25
2018-06-23T04:17:51.657Z,101.25
2018-06-23T04:18:51.656Z,106.88
2018-06-23T04:19:51.649Z,106.88
2018-06-23T04:20:51.643Z,112.50
2018-06-23T04:21:51.638Z,123.75
2018-06-23T04:22:51.628Z,123.75
2018-06-23T04:23:51.621Z,135.00
2018-06-23T04:24:51.616Z,157.50
2018-06-23T04:25:51.611Z,174.38
2018-06-23T04:26:51.610Z,180.00
2018-06-23T04:27:51.606Z,168.75
2018-06-23T04:28:51.594Z,151.88
2018-06-23T04:29:51.590Z,129.38
2018-06-23T04:30:51.589Z,118.13
2018-06-23T04:31:51.582Z,112.50
2018-06-23T04:32:51.577Z,112.50
2018-06-23T04:33:51.573Z,112.50
2018-06-23T04:34:51.564Z,112.50
2018-06-23T04:35:51.557Z,118.13
2018-06-23T04:36:51.552Z,112.50
2018-06-23T04:37:51.549Z,106.88
2018-06-23T04:38:51.549Z,106.88
2018-06-23T04:39:51.542Z,112.50
2018-06-23T04:40:51.537Z,129.38
2018-06-23T04:41:51.532Z,151.88
2018-06-23T04:42:51.522Z,163.13
2018-06-23T04:43:51.517Z,174.38
2018-06-23T04:44:51.516Z,174.38
2018-06-23T04:45:51.513Z,168.75
2018-06-23T04:46:51.503Z,174.38
2018-06-23T04:47:51.497Z,191.25
2018-06-23T04:48:51.493Z,180.00
2018-06-23T04:49:51.488Z,157.50
2018-06-23T04:50:51.490Z,140.63
2018-06-23T04:51:51.483Z,129.38
2018-06-23T04:52:51.478Z,118.13
2018-06-23T04:53:51.481Z,112.50
2018-06-23T04:54:51.466Z,106.88
2018-06-23T04:55:51.460Z,101.25
2018-06-23T04:56:51.456Z,101.25
2018-06-23T04:57:51.452Z,106.88
2018-06-23T04:58:51.453Z,112.50
2018-06-23T04:59:51.448Z,129.38
2018-06-23T05:00:51.438Z,163.13
2018-06-23T05:01:51.434Z,196.88
2018-06-23T05:02:51.435Z,225.00
2018-06-23T05:03:51.430Z,213.75
2018-06-23T05:04:51.426Z,208.13
2018-06-23T05:05:51.421Z,196.88
2018-06-23T05:06:51.413Z,191.25
2018-06-23T05:07:51.407Z,191.25
2018-06-23T05:08:51.404Z,196.88
2018-06-23T05:09:51.399Z,191.25
2018-06-23T05:10:51.401Z,180.00
2018-06-23T05:11:51.396Z,191.25
2018-06-23T05:12:51.392Z,219.38
2018-06-23T05:13:51.387Z,253.13
2018-06-23T05:14:51.381Z,253.13
2018-06-23T05:15:51.375Z,258.75
2018-06-23T05:16:51.377Z,258.75
2018-06-23T05:17:51.371Z,258.75
2018-06-23T05:18:51.365Z,264.38
2018-06-23T05:19:51.361Z,270.00
2018-06-23T05:20:51.356Z,275.63
2018-06-23T05:21:51.351Z,281.25
2018-06-23T05:22:51.355Z,275.63
2018-06-23T05:23:51.347Z,253.13
2018-06-23T05:24:51.344Z,236.25
2018-06-23T05:25:51.352Z,230.63
2018-06-23T05:26:51.332Z,225.00
2018-06-23T05:27:51.331Z,208.13
2018-06-23T05:28:51.326Z,191.25
2018-06-23T05:29:51.322Z,180.00
2018-06-23T05:30:51.324Z,151.88
2018-06-23T05:31:51.330Z,129.38
2018-06-23T05:32:51.311Z,112.50
2018-06-23T05:33:51.308Z,101.25
2018-06-23T05:34:51.310Z,101.25
2018-06-23T05:35:51.305Z,106.88
2018-06-23T05:36:51.300Z,118.13
2018-06-23T05:37:51.364Z,118.13
2018-06-23T05:38:51.290Z,118.13
2018-06-23T05:39:51.286Z,118.13
2018-06-23T05:40:51.282Z,112.50
2018-06-23T05:41:51.279Z,112.50
2018-06-23T05:42:51.280Z,112.50
2018-06-23T05:43:51.275Z,112.50
2018-06-23T05:44:51.307Z,112.50
2018-06-23T05:45:51.269Z,118.13
2018-06-23T05:46:51.261Z,118.13
2018-06-23T05:47:51.256Z,118.13
2018-06-23T05:48:51.258Z,112.50
2018-06-23T05:49:51.254Z,106.88
2018-06-23T05:50:51.247Z,106.88
2018-06-23T05:51:51.264Z,106.88
2018-06-23T05:52:51.238Z,106.88
2018-06-23T05:53:51.235Z,106.88
2018-06-23T05:54:51.236Z,112.50
2018-06-23T05:55:51.232Z,118.13
2018-06-23T05:56:51.228Z,123.75
2018-06-23T05:57:51.226Z,135.00
2018-06-23T05:58:51.221Z,146.25
2018-06-23T05:59:51.212Z,151.88
2018-06-23T06:00:51.208Z,168.75
2018-06-23T06:01:51.205Z,180.00
2018-06-23T06:02:51.205Z,191.25
2018-06-23T06:03:51.204Z,174.38
2018-06-23T06:04:51.196Z,174.38
2018-06-23T06:05:51.189Z,174.38
2018-06-23T06:06:51.191Z,168.75
2018-06-23T06:07:51.186Z,168.75
2018-06-23T06:08:51.183Z,168.75
2018-06-23T06:09:51.180Z,180.00
2018-06-23T06:10:51.173Z,174.38
2018-06-23T06:11:51.167Z,163.13
2018-06-23T06:12:51.167Z,151.88
2018-06-23T06:13:51.165Z,151.88
2018-06-23T06:14:51.182Z,140.63
2018-06-23T06:15:51.158Z,129.38
2018-06-23T06:16:51.154Z,135.00
2018-06-23T06:17:51.150Z,140.63
2018-06-23T06:18:51.144Z,146.25
2018-06-23T06:19:51.136Z,140.63
2018-06-23T06:20:51.144Z,135.00
2018-06-23T06:21:51.136Z,151.88
2018-06-23T06:22:51.128Z,191.25
2018-06-23T06:23:51.150Z,225.00
2018-06-23T06:24:51.120Z,225.00
2018-06-23T06:25:51.117Z,213.75
2018-06-23T06:26:51.120Z,219.38
2018-06-23T06:27:51.115Z,213.75
2018-06-23T06:28:51.111Z,180.00
2018-06-23T06:29:51.109Z,168.75
2018-06-23T06:30:51.100Z,174.38
2018-06-23T06:31:51.096Z,174.38
2018-06-23T06:32:51.092Z,168.75
2018-06-23T06:33:51.090Z,151.88
2018-06-23T06:34:51.090Z,146.25
2018-06-23T06:35:51.086Z,146.25
2018-06-23T06:36:51.079Z,157.50
2018-06-23T06:37:51.074Z,185.63
2018-06-23T06:38:51.076Z,185.63
2018-06-23T06:39:51.072Z,168.75
2018-06-23T06:40:51.069Z,168.75
2018-06-23T06:41:51.066Z,146.25
2018-06-23T06:42:51.057Z,140.63
2018-06-23T06:43:51.053Z,140.63
2018-06-23T06:44:51.059Z,135.00
2018-06-23T06:45:51.046Z,146.25
2018-06-23T06:46:51.049Z,146.25
2018-06-23T06:47:51.043Z,146.25
2018-06-23T06:48:51.040Z,163.13
2018-06-23T06:49:51.037Z,185.63
2018-06-23T06:50:51.042Z,208.13
2018-06-23T06:51:51.023Z,230.63
2018-06-23T06:52:51.024Z,241.88
2018-06-23T06:53:51.022Z,253.13
2018-06-23T06:54:51.013Z,258.75
2018-06-23T06:55:51.009Z,253.13
2018-06-23T06:56:51.010Z,247.50
2018-06-23T06:57:51.002Z,303.75
2018-06-23T06:58:51.004Z,382.50
2018-06-23T06:59:51.000Z,478.13
2018-06-23T07:00:50.996Z,568.13
2018-06-23T07:01:50.997Z,742.50
2018-06-23T07:02:50.984Z,1125.00
2018-06-23T07:03:50.980Z,1080.00
2018-06-23T07:04:50.976Z,1040.63
2018-06-23T07:05:50.973Z,956.25
2018-06-23T07:06:50.975Z,838.13
2018-06-23T07:07:50.972Z,883.13
2018-06-23T07:08:50.991Z,900.00
2018-06-23T07:09:50.963Z,939.38
2018-06-23T07:10:50.966Z,1108.13
2018-06-23T07:11:50.964Z,1153.13
2018-06-23T07:12:50.962Z,1248.75
2018-06-23T07:13:50.960Z,1361.25
2018-06-23T07:14:50.954Z,1445.63
2018-06-23T07:15:50.953Z,1586.25
2018-06-23T07:16:50.951Z,1856.25
2018-06-23T07:17:50.952Z,1552.50
2018-06-23T07:18:50.957Z,2261.25
2018-06-23T07:19:50.954Z,1625.63
2018-06-23T07:20:50.956Z,1496.25
2018-06-23T07:21:50.956Z,1074.38
2018-06-23T07:22:50.952Z,984.38
2018-06-23T07:23:51.125Z,911.25
2018-06-23T07:24:50.959Z,849.38
2018-06-23T07:25:50.962Z,804.38
2018-06-23T07:26:50.978Z,804.38
2018-06-23T07:27:50.961Z,810.00
2018-06-23T07:28:50.964Z,787.50
2018-06-23T07:29:50.967Z,714.38
2018-06-23T07:30:51.062Z,534.38
2018-06-23T07:31:50.976Z,382.50
2018-06-23T07:32:50.978Z,298.13
2018-06-23T07:33:50.982Z,253.13
2018-06-23T07:34:51.205Z,236.25
2018-06-23T07:35:50.980Z,236.25
2018-06-23T07:36:50.981Z,298.13
2018-06-23T07:37:50.986Z,416.25
2018-06-23T07:38:50.990Z,427.50
2018-06-23T07:39:50.992Z,455.63
2018-06-23T07:40:50.990Z,641.25
2018-06-23T07:41:50.991Z,798.75
2018-06-23T07:42:50.998Z,855.00
2018-06-23T07:43:50.998Z,916.88
2018-06-23T07:44:51.000Z,995.63
2018-06-23T07:45:51.002Z,1102.50
2018-06-23T07:46:50.998Z,1231.88
2018-06-23T07:47:50.998Z,1085.63
2018-06-23T07:48:51.001Z,1057.50
2018-06-23T07:49:51.002Z,1085.63
2018-06-23T07:50:51.008Z,1130.63
2018-06-23T07:51:51.009Z,1215.00
2018-06-23T07:52:51.011Z,1260.00
2018-06-23T07:53:51.013Z,1220.63
2018-06-23T07:54:51.010Z,1080.00
2018-06-23T07:55:51.014Z,1653.75
2018-06-23T07:56:51.019Z,1440.00
2018-06-23T07:57:51.020Z,1743.75
2018-06-23T07:58:51.019Z,1665.00
2018-06-23T07:59:51.022Z,1158.75
2018-06-23T08:00:51.023Z,1856.25
2018-06-23T08:01:51.026Z,748.13
2018-06-23T08:02:51.033Z,444.38
2018-06-23T08:03:51.035Z,376.88
2018-06-23T08:04:51.039Z,399.38
2018-06-23T08:05:51.041Z,624.38
2018-06-23T08:06:51.040Z,933.75
2018-06-23T08:07:51.042Z,1046.25
2018-06-23T08:08:51.045Z,1175.63
2018-06-23T08:09:51.049Z,1586.25
2018-06-23T08:10:51.057Z,1968.75
2018-06-23T08:11:51.275Z,3858.75
2018-06-23T08:12:51.057Z,5928.75
2018-06-23T08:13:51.061Z,5090.63
2018-06-23T08:14:51.070Z,3605.63
2018-06-23T08:15:51.073Z,1653.75
2018-06-23T08:16:51.083Z,1046.25
2018-06-23T08:17:51.081Z,748.13
2018-06-23T08:18:51.082Z,573.75
2018-06-23T08:19:51.086Z,444.38
2018-06-23T08:20:51.092Z,382.50
2018-06-23T08:21:51.098Z,343.13
2018-06-23T08:22:51.108Z,298.13
2018-06-23T08:23:51.119Z,253.13
2018-06-23T08:24:51.135Z,219.38
2018-06-23T08:25:51.124Z,174.38
2018-06-23T08:26:51.124Z,163.13
2018-06-23T08:27:51.128Z,146.25
2018-06-23T08:28:51.138Z,146.25
2018-06-23T08:29:51.145Z,146.25
2018-06-23T08:30:51.143Z,118.13
2018-06-23T08:31:51.173Z,118.13
2018-06-23T08:32:51.151Z,146.25
2018-06-23T08:33:51.153Z,151.88
2018-06-23T08:34:51.164Z,191.25
2018-06-23T08:35:51.169Z,230.63
2018-06-23T08:36:51.168Z,247.50
2018-06-23T08:37:51.180Z,258.75
2018-06-23T08:38:51.171Z,292.50
2018-06-23T08:39:51.186Z,438.75
2018-06-23T08:40:51.174Z,652.50
2018-06-23T08:41:51.176Z,714.38
2018-06-23T08:42:51.184Z,686.25
2018-06-23T08:43:51.184Z,669.38
2018-06-23T08:44:51.181Z,686.25
2018-06-23T08:45:51.184Z,832.50
2018-06-23T08:46:51.193Z,849.38
2018-06-23T08:47:51.191Z,2795.63
2018-06-23T08:48:51.194Z,4933.13
2018-06-23T08:49:51.194Z,1569.38
2018-06-23T08:50:51.192Z,1046.25
2018-06-23T08:51:51.194Z,725.63
2018-06-23T08:52:51.196Z,551.25
2018-06-23T08:53:51.198Z,495.00
2018-06-23T08:54:51.208Z,438.75
2018-06-23T08:55:51.207Z,348.75
2018-06-23T08:56:51.223Z,286.88
2018-06-23T08:57:51.213Z,241.88
2018-06-23T08:58:51.212Z,213.75
2018-06-23T08:59:51.213Z,180.00
2018-06-23T09:00:51.222Z,157.50
2018-06-23T09:01:51.275Z,146.25
2018-06-23T09:02:51.300Z,135.00
2018-06-23T09:03:51.223Z,123.75
2018-06-23T09:04:51.224Z,135.00
2018-06-23T09:05:51.227Z,146.25
2018-06-23T09:06:51.236Z,146.25
2018-06-23T09:07:51.235Z,146.25
2018-06-23T09:08:51.237Z,151.88
2018-06-23T09:09:51.240Z,157.50
2018-06-23T09:10:51.235Z,157.50
2018-06-23T09:11:51.238Z,157.50
2018-06-23T09:12:51.237Z,151.88
2018-06-23T09:13:51.239Z,151.88
2018-06-23T09:14:51.245Z,174.38
2018-06-23T09:15:51.243Z,236.25
2018-06-23T09:16:51.256Z,388.13
2018-06-23T09:17:51.241Z,725.63
2018-06-23T09:18:51.247Z,2829.38
2018-06-23T09:19:51.247Z,1468.13
2018-06-23T09:20:51.248Z,1091.25
2018-06-23T09:21:51.249Z,933.75
2018-06-23T09:22:51.244Z,798.75
2018-06-23T09:23:51.245Z,686.25
2018-06-23T09:24:51.251Z,624.38
2018-06-23T09:25:51.296Z,585.00
2018-06-23T09:26:51.254Z,540.00
2018-06-23T09:27:51.255Z,500.63
2018-06-23T09:28:51.255Z,472.50
2018-06-23T09:29:51.257Z,455.63
2018-06-23T09:30:51.255Z,450.00
2018-06-23T09:31:51.253Z,421.88
2018-06-23T09:32:51.259Z,393.75
2018-06-23T09:33:51.261Z,371.25
2018-06-23T09:34:51.258Z,365.63
2018-06-23T09:35:51.258Z,360.00
2018-06-23T09:36:51.260Z,348.75
2018-06-23T09:37:51.261Z,331.88
2018-06-23T09:38:51.268Z,320.63
2018-06-23T09:39:51.273Z,303.75
2018-06-23T09:40:51.274Z,298.13
2018-06-23T09:41:51.271Z,281.25
2018-06-23T09:42:51.269Z,275.63
2018-06-23T09:43:51.266Z,275.63
2018-06-23T09:44:51.267Z,281.25
2018-06-23T09:45:51.274Z,298.13
2018-06-23T09:46:51.273Z,303.75
2018-06-23T09:47:51.274Z,298.13
2018-06-23T09:48:51.270Z,298.13
2018-06-23T09:49:51.275Z,298.13
2018-06-23T09:50:51.274Z,292.50
2018-06-23T09:51:51.277Z,286.88
2018-06-23T09:52:51.280Z,298.13
2018-06-23T09:53:51.277Z,303.75
2018-06-23T09:54:51.271Z,320.63
2018-06-23T09:55:51.288Z,337.50
2018-06-23T09:56:51.271Z,365.63
2018-06-23T09:57:51.272Z,376.88
2018-06-23T09:58:51.278Z,393.75
2018-06-23T09:59:51.279Z,382.50
2018-06-23T10:00:51.278Z,376.88
2018-06-23T10:01:51.276Z,365.63
2018-06-23T10:02:51.274Z,320.63
2018-06-23T10:03:51.270Z,343.13
2018-06-23T10:04:51.275Z,438.75
2018-06-23T10:05:51.276Z,573.75
2018-06-23T10:06:51.272Z,663.75
2018-06-23T10:07:51.270Z,776.25
2018-06-23T10:08:51.270Z,883.13
2018-06-23T10:09:51.274Z,939.38
2018-06-23T10:10:51.274Z,894.38
2018-06-23T10:11:51.276Z,860.63
2018-06-23T10:12:51.274Z,810.00
2018-06-23T10:13:51.275Z,691.88
2018-06-23T10:14:51.270Z,568.13
2018-06-23T10:15:51.270Z,438.75
2018-06-23T10:16:51.271Z,393.75
2018-06-23T10:17:51.271Z,393.75
2018-06-23T10:18:51.277Z,641.25
2018-06-23T10:19:51.277Z,793.13
2018-06-23T10:20:51.272Z,686.25
2018-06-23T10:21:51.274Z,579.38
2018-06-23T10:22:51.279Z,534.38
2018-06-23T10:23:51.280Z,562.50
2018-06-23T10:24:51.281Z,545.63
2018-06-23T10:25:51.279Z,511.88
2018-06-23T10:26:51.276Z,540.00
2018-06-23T10:27:51.279Z,483.75
2018-06-23T10:28:51.279Z,472.50
2018-06-23T10:29:51.277Z,517.50
2018-06-23T10:30:51.282Z,461.25
2018-06-23T10:31:51.282Z,427.50
2018-06-23T10:32:51.285Z,421.88
2018-06-23T10:33:51.285Z,472.50
2018-06-23T10:34:51.281Z,534.38
2018-06-23T10:35:51.281Z,568.13
2018-06-23T10:36:51.287Z,579.38
2018-06-23T10:37:51.326Z,630.00
2018-06-23T10:38:51.282Z,652.50
2018-06-23T10:39:51.284Z,652.50
2018-06-23T10:40:51.283Z,641.25
2018-06-23T10:41:51.285Z,624.38
2018-06-23T10:42:51.288Z,658.13
2018-06-23T10:43:51.288Z,691.88
2018-06-23T10:44:51.295Z,714.38
2018-06-23T10:45:51.290Z,759.38
2018-06-23T10:46:51.287Z,804.38
2018-06-23T10:47:51.287Z,793.13
2018-06-23T10:48:51.290Z,793.13
2018-06-23T10:49:51.290Z,815.63
2018-06-23T10:50:51.296Z,781.88
2018-06-23T10:51:51.295Z,736.88
2018-06-23T10:52:51.291Z,725.63
2018-06-23T10:53:51.293Z,748.13
2018-06-23T10:54:51.299Z,708.75
2018-06-23T10:55:51.298Z,742.50
2018-06-23T10:56:51.300Z,759.38
2018-06-23T10:57:51.331Z,646.88
2018-06-23T10:58:51.298Z,573.75
2018-06-23T10:59:51.299Z,556.88
2018-06-23T11:00:51.300Z,545.63
2018-06-23T11:01:51.302Z,506.25
2018-06-23T11:02:51.308Z,450.00
2018-06-23T11:03:51.309Z,376.88
2018-06-23T11:04:51.402Z,337.50
2018-06-23T11:05:51.313Z,270.00
2018-06-23T11:06:51.309Z,225.00
2018-06-23T11:07:51.310Z,275.63
2018-06-23T11:08:51.316Z,326.25
2018-06-23T11:09:51.317Z,354.38
2018-06-23T11:10:51.315Z,376.88
2018-06-23T11:11:51.315Z,393.75
2018-06-23T11:12:51.315Z,438.75
2018-06-23T11:13:51.315Z,472.50
2018-06-23T11:14:51.321Z,478.13
2018-06-23T11:15:51.322Z,405.00
2018-06-23T11:16:51.322Z,331.88
2018-06-23T11:17:51.325Z,320.63
2018-06-23T11:18:51.320Z,399.38
2018-06-23T11:19:51.321Z,511.88
2018-06-23T11:20:51.321Z,573.75
2018-06-23T11:21:51.322Z,613.13
2018-06-23T11:22:51.327Z,635.63
2018-06-23T11:23:51.327Z,596.25
2018-06-23T11:24:51.323Z,545.63
2018-06-23T11:25:51.325Z,511.88
2018-06-23T11:26:51.329Z,495.00
2018-06-23T11:27:51.329Z,500.63
2018-06-23T11:28:51.330Z,495.00
2018-06-23T11:29:51.338Z,472.50
2018-06-23T11:30:51.329Z,466.88
2018-06-23T11:31:51.327Z,450.00
2018-06-23T11:32:51.331Z,421.88
2018-06-23T11:33:51.330Z,405.00
2018-06-23T11:34:51.338Z,365.63
2018-06-23T11:35:51.335Z,354.38
2018-06-23T11:36:51.334Z,337.50
2018-06-23T11:37:51.337Z,331.88
2018-06-23T11:38:51.331Z,331.88
2018-06-23T11:39:51.331Z,326.25
2018-06-23T11:40:51.336Z,326.25
2018-06-23T11:41:51.341Z,320.63
2018-06-23T11:42:51.333Z,315.00
2018-06-23T11:43:51.337Z,315.00
2018-06-23T11:44:51.335Z,320.63
2018-06-23T11:45:51.335Z,326.25
2018-06-23T11:46:51.343Z,331.88
2018-06-23T11:47:51.344Z,348.75
2018-06-23T11:48:51.341Z,365.63
2018-06-23T11:49:51.341Z,393.75
2018-06-23T11:50:51.336Z,388.13
2018-06-23T11:51:51.336Z,444.38
2018-06-23T11:52:51.337Z,466.88
2018-06-23T11:53:51.336Z,495.00
2018-06-23T11:54:51.342Z,596.25
2018-06-23T11:55:51.345Z,736.88
2018-06-23T11:56:51.359Z,860.63
2018-06-23T11:57:51.339Z,973.13
2018-06-23T11:58:51.343Z,1012.50
2018-06-23T11:59:51.342Z,978.75
2018-06-23T12:00:51.344Z,973.13
2018-06-23T12:01:51.363Z,905.63
2018-06-23T12:02:51.341Z,849.38
2018-06-23T12:03:51.342Z,871.88
2018-06-23T12:04:51.342Z,894.38
2018-06-23T12:05:51.345Z,871.88
2018-06-23T12:06:51.351Z,911.25
2018-06-23T12:07:51.350Z,978.75
2018-06-23T12:08:51.351Z,1001.25
2018-06-23T12:09:51.354Z,978.75
2018-06-23T12:10:51.352Z,922.50
2018-06-23T12:11:51.356Z,911.25
2018-06-23T12:12:51.359Z,900.00
2018-06-23T12:13:51.362Z,950.63
2018-06-23T12:14:51.385Z,990.00
2018-06-23T12:15:51.361Z,1125.00
2018-06-23T12:16:51.363Z,1108.13
2018-06-23T12:17:51.365Z,1119.38
2018-06-23T12:18:51.373Z,1012.50
2018-06-23T12:19:51.376Z,1051.88
2018-06-23T12:20:51.377Z,1085.63
2018-06-23T12:21:51.381Z,1080.00
2018-06-23T12:22:51.379Z,1085.63
2018-06-23T12:23:51.385Z,1057.50
2018-06-23T12:24:51.384Z,1080.00
2018-06-23T12:25:51.388Z,1046.25
2018-06-23T12:26:51.397Z,1119.38
2018-06-23T12:27:51.399Z,1096.88
2018-06-23T12:28:51.398Z,1063.13
2018-06-23T12:29:51.403Z,1057.50
2018-06-23T12:30:51.409Z,1051.88
2018-06-23T12:31:51.412Z,1040.63
2018-06-23T12:32:51.415Z,1001.25
2018-06-23T12:33:51.419Z,939.38
2018-06-23T12:34:51.421Z,900.00
2018-06-23T12:35:51.422Z,905.63
2018-06-23T12:36:51.429Z,900.00
2018-06-23T12:37:51.433Z,883.13
2018-06-23T12:38:51.438Z,922.50
2018-06-23T12:39:51.440Z,1012.50
2018-06-23T12:40:51.446Z,1023.75